Baltimore, MD (21206)

12:41 AM EST on February 08, 2016 (GMT -0500)
CSMT-21234 | | Change Station
CLOSE
Current Station
Personal Weather Station
Location: Baltimore, MD
Elevation: 328 ft
Nearby Weather Stations

Elev 328 ft 39.36 °N, 76.54 °W | Updated 30 seconds ago

Overcast
Overcast
36.9 °F
Feels Like 33 °F
N
4.7
Wind Variable Wind from NNE

Today
High -- | Low -- °F
--% Chance of Precip.
Yesterday
High -- | Low -- °F
Precip. -- in
Pressure 29.85 in
Visibility 10.0 miles
Clouds Mostly Cloudy 19000 ft
Overcast 23000 ft
Windchill 33 °F
Dew Point 21 °F
Humidity 52%
Rainfall 0.00 in
Snow Depth Not available.
7:06 AM 5:34 PM
Waning Crescent, 0% visible
METAR KBWI 080454Z 01005KT 10SM BKN190 OVC230 03/M06 A2985 RMK AO2 SLP107 T00331056 400671056
Pressure 29.85 in
Visibility 10.0 miles
Clouds Mostly Cloudy 19000 ft
Overcast 23000 ft
Windchill 33 °F
Dew Point 21 °F
Humidity 52%
Rainfall 0.00 in
Snow Depth Not available.
7:06 AM 5:34 PM
Waning Crescent, 0% visible
METAR KBWI 080454Z 01005KT 10SM BKN190 OVC230 03/M06 A2985 RMK AO2 SLP107 T00331056 400671056

10-Day Weather Forecast

Almanac

Astronomy

Feb. 08, 2016 Rise Set
Actual Time
Civil Twilight
Nautical Twilight
Astronomical Twilight
Moon
Length of Visible Light
Length of Day
Tomorrow will be .
, % of the Moon is Illuminated

Today's Extremes

State Highs State Lows

Community

WunderPhotos

Upload Photos

1,891,390 photos uploaded!

WunderBlog® & News

Nearby

Air Quality

  Air Quality AQ Index Pollutant
Not available.

Snow Depth

Station Depth Elevation

Earthquake Activity

City Distance Mag. Time & Date
Minimum magnitude displayed is 2.5.

Coastal Water Temperatures

Place Temperature

Stations

Nearby Weather Stations

Station Location Temp. Windchill Dew Point Humidity Wind Precip. Elev Updated Type
                   

Watches & Warnings

There are currently no watches in effect.